sensor_id;sensor_type;location;lat;lon;timestamp;pressure;altitude;pressure_sealevel;temperature;humidity
13476;BME280;6810;63.824;20.288;2023-02-12T00:01:00;102082.28;;;-2.77;99.67
13476;BME280;6810;63.824;20.288;2023-02-12T00:03:47;102049.06;;;-2.85;99.79
13476;BME280;6810;63.824;20.288;2023-02-12T00:06:15;102063.09;;;-2.79;99.36
13476;BME280;6810;63.824;20.288;2023-02-12T00:09:02;102054.25;;;-2.87;99.66
13476;BME280;6810;63.824;20.288;2023-02-12T00:11:49;102062.22;;;-2.79;98.96
13476;BME280;6810;63.824;20.288;2023-02-12T00:14:36;102063.09;;;-2.80;99.46
13476;BME280;6810;63.824;20.288;2023-02-12T00:17:23;102060.44;;;-2.82;99.49
13476;BME280;6810;63.824;20.288;2023-02-12T00:20:10;102058.72;;;-2.81;98.97
13476;BME280;6810;63.824;20.288;2023-02-12T00:22:57;102060.44;;;-2.82;99.28
13476;BME280;6810;63.824;20.288;2023-02-12T00:25:44;102057.81;;;-2.83;99.43
13476;BME280;6810;63.824;20.288;2023-02-12T00:28:31;102059.50;;;-2.85;99.66
13476;BME280;6810;63.824;20.288;2023-02-12T00:31:21;102058.69;;;-2.84;98.93
13476;BME280;6810;63.824;20.288;2023-02-12T00:34:10;102055.19;;;-2.85;98.82
13476;BME280;6810;63.824;20.288;2023-02-12T00:36:57;102045.50;;;-2.90;99.17
13476;BME280;6810;63.824;20.288;2023-02-12T00:39:44;102061.25;;;-2.86;100.00
13476;BME280;6810;63.824;20.288;2023-02-12T00:42:31;102048.22;;;-2.86;99.25
13476;BME280;6810;63.824;20.288;2023-02-12T00:45:18;102039.50;;;-2.86;99.90
13476;BME280;6810;63.824;20.288;2023-02-12T00:48:06;102035.16;;;-2.87;99.58
13476;BME280;6810;63.824;20.288;2023-02-12T00:50:53;102033.38;;;-2.88;99.15
13476;BME280;6810;63.824;20.288;2023-02-12T00:53:40;102037.75;;;-2.89;99.60
13476;BME280;6810;63.824;20.288;2023-02-12T00:56:27;102024.63;;;-2.90;99.01
13476;BME280;6810;63.824;20.288;2023-02-12T00:59:14;101984.22;;;-3.16;99.92
13476;BME280;6810;63.824;20.288;2023-02-12T01:02:02;102007.19;;;-2.94;99.56
13476;BME280;6810;63.824;20.288;2023-02-12T01:04:49;101992.22;;;-3.07;99.02
13476;BME280;6810;63.824;20.288;2023-02-12T01:07:36;102001.16;;;-2.90;99.38
13476;BME280;6810;63.824;20.288;2023-02-12T01:10:23;101986.38;;;-2.91;100.00
13476;BME280;6810;63.824;20.288;2023-02-12T01:13:12;101985.53;;;-2.90;100.00
13476;BME280;6810;63.824;20.288;2023-02-12T01:16:21;101994.22;;;-2.90;100.00
13476;BME280;6810;63.824;20.288;2023-02-12T01:19:10;101996.84;;;-2.90;99.85
13476;BME280;6810;63.824;20.288;2023-02-12T01:21:57;102009.00;;;-2.90;99.80
13476;BME280;6810;63.824;20.288;2023-02-12T01:24:44;101998.56;;;-2.90;100.00
13476;BME280;6810;63.824;20.288;2023-02-12T01:27:31;101984.63;;;-2.92;100.00
13476;BME280;6810;63.824;20.288;2023-02-12T01:30:19;101985.56;;;-2.89;100.00
13476;BME280;6810;63.824;20.288;2023-02-12T01:33:06;101978.59;;;-2.90;100.00
13476;BME280;6810;63.824;20.288;2023-02-12T01:35:53;101975.16;;;-2.89;100.00
13476;BME280;6810;63.824;20.288;2023-02-12T01:38:40;101971.66;;;-2.89;100.00
13476;BME280;6810;63.824;20.288;2023-02-12T01:41:30;101972.53;;;-2.89;99.51
13476;BME280;6810;63.824;20.288;2023-02-12T01:44:20;101966.44;;;-2.89;99.20
13476;BME280;6810;63.824;20.288;2023-02-12T01:47:16;101958.59;;;-2.89;99.29
13476;BME280;6810;63.824;20.288;2023-02-12T01:50:06;101955.09;;;-2.90;99.76
13476;BME280;6810;63.824;20.288;2023-02-12T01:52:55;101952.50;;;-2.90;100.00
13476;BME280;6810;63.824;20.288;2023-02-12T01:55:43;101966.44;;;-2.89;100.00
13476;BME280;6810;63.824;20.288;2023-02-12T01:58:35;101969.94;;;-2.89;99.38
13476;BME280;6810;63.824;20.288;2023-02-12T02:01:26;101967.31;;;-2.89;99.36
13476;BME280;6810;63.824;20.288;2023-02-12T02:04:16;101962.97;;;-2.88;99.85
13476;BME280;6810;63.824;20.288;2023-02-12T02:07:06;101983.81;;;-2.88;100.00
13476;BME280;6810;63.824;20.288;2023-02-12T02:09:57;101964.66;;;-2.90;99.73
13476;BME280;6810;63.824;20.288;2023-02-12T02:12:45;101952.53;;;-2.88;100.00
13476;BME280;6810;63.824;20.288;2023-02-12T02:15:31;101956.03;;;-2.88;99.81
13476;BME280;6810;63.824;20.288;2023-02-12T02:18:26;101927.97;;;-3.01;99.52
13476;BME280;6810;63.824;20.288;2023-02-12T02:21:45;101941.25;;;-2.87;99.95
13476;BME280;6810;63.824;20.288;2023-02-12T02:27:52;101941.25;;;-2.87;100.00
13476;BME280;6810;63.824;20.288;2023-02-12T02:30:53;101922.88;;;-2.93;100.00
13476;BME280;6810;63.824;20.288;2023-02-12T02:33:52;101935.16;;;-2.88;100.00
13476;BME280;6810;63.824;20.288;2023-02-12T02:39:53;101946.47;;;-2.87;100.00
13476;BME280;6810;63.824;20.288;2023-02-12T02:42:52;101939.50;;;-2.88;99.99
13476;BME280;6810;63.824;20.288;2023-02-12T02:45:36;101929.97;;;-2.86;99.78
13476;BME280;6810;63.824;20.288;2023-02-12T02:48:11;101927.34;;;-2.86;100.00
13476;BME280;6810;63.824;20.288;2023-02-12T02:50:42;101923.03;;;-2.86;100.00
13476;BME280;6810;63.824;20.288;2023-02-12T02:53:13;101866.00;;;-3.20;99.77
13476;BME280;6810;63.824;20.288;2023-02-12T02:55:49;101931.72;;;-2.84;99.49
13476;BME280;6810;63.824;20.288;2023-02-12T02:58:24;101930.00;;;-2.83;100.00
13476;BME280;6810;63.824;20.288;2023-02-12T03:01:08;101903.66;;;-3.01;100.00
13476;BME280;6810;63.824;20.288;2023-02-12T03:04:04;101930.03;;;-2.82;99.88
13476;BME280;6810;63.824;20.288;2023-02-12T03:07:04;101875.75;;;-3.07;99.77
13476;BME280;6810;63.824;20.288;2023-02-12T03:10:02;101870.56;;;-3.04;100.00
13476;BME280;6810;63.824;20.288;2023-02-12T03:12:54;101895.28;;;-2.79;100.00
13476;BME280;6810;63.824;20.288;2023-02-12T03:15:46;101885.75;;;-2.77;100.00
13476;BME280;6810;63.824;20.288;2023-02-12T03:18:41;101866.47;;;-2.88;100.00
13476;BME280;6810;63.824;20.288;2023-02-12T03:21:53;101877.09;;;-2.75;100.00
13476;BME280;6810;63.824;20.288;2023-02-12T03:24:59;101859.66;;;-2.79;100.00
13476;BME280;6810;63.824;20.288;2023-02-12T03:39:52;101822.41;;;-2.67;100.00
13476;BME280;6810;63.824;20.288;2023-02-12T03:48:27;101821.66;;;-2.60;99.74
13476;BME280;6810;63.824;20.288;2023-02-12T03:51:24;101801.56;;;-2.64;100.00
13476;BME280;6810;63.824;20.288;2023-02-12T03:54:17;101783.25;;;-2.69;100.00
13476;BME280;6810;63.824;20.288;2023-02-12T03:57:12;101773.00;;;-2.57;100.00
13476;BME280;6810;63.824;20.288;2023-02-12T04:00:05;101751.97;;;-2.67;100.00
13476;BME280;6810;63.824;20.288;2023-02-12T04:02:53;101780.91;;;-2.51;100.00
13476;BME280;6810;63.824;20.288;2023-02-12T04:05:40;101768.66;;;-2.53;100.00
13476;BME280;6810;63.824;20.288;2023-02-12T04:08:28;101775.72;;;-2.48;100.00
13476;BME280;6810;63.824;20.288;2023-02-12T04:14:21;101741.75;;;-2.52;100.00
13476;BME280;6810;63.824;20.288;2023-02-12T04:17:37;101756.63;;;-2.41;99.96
13476;BME280;6810;63.824;20.288;2023-02-12T04:27:18;101729.72;;;-2.34;100.00
13476;BME280;6810;63.824;20.288;2023-02-12T04:30:13;101720.19;;;-2.32;100.00
13476;BME280;6810;63.824;20.288;2023-02-12T04:33:07;101700.19;;;-2.30;100.00
13476;BME280;6810;63.824;20.288;2023-02-12T04:36:01;101698.44;;;-2.31;100.00
13476;BME280;6810;63.824;20.288;2023-02-12T04:38:53;101646.84;;;-2.59;100.00
13476;BME280;6810;63.824;20.288;2023-02-12T04:41:43;101706.38;;;-2.23;100.00
13476;BME280;6810;63.824;20.288;2023-02-12T04:44:32;101684.59;;;-2.22;100.00
13476;BME280;6810;63.824;20.288;2023-02-12T04:47:19;101666.34;;;-2.19;100.00
13476;BME280;6810;63.824;20.288;2023-02-12T04:50:07;101625.25;;;-2.41;100.00
13476;BME280;6810;63.824;20.288;2023-02-12T04:52:54;101668.13;;;-2.15;100.00
13476;BME280;6810;63.824;20.288;2023-02-12T04:55:41;101642.91;;;-2.13;100.00
13476;BME280;6810;63.824;20.288;2023-02-12T04:58:28;101524.94;;;-2.78;100.00
13476;BME280;6810;63.824;20.288;2023-02-12T05:01:16;101637.72;;;-2.09;100.00
13476;BME280;6810;63.824;20.288;2023-02-12T05:04:03;101626.41;;;-2.08;100.00
13476;BME280;6810;63.824;20.288;2023-02-12T05:06:51;101631.59;;;-2.09;100.00
13476;BME280;6810;63.824;20.288;2023-02-12T05:09:37;101631.63;;;-2.06;100.00
13476;BME280;6810;63.824;20.288;2023-02-12T05:12:24;101614.25;;;-2.06;100.00
13476;BME280;6810;63.824;20.288;2023-02-12T05:15:11;101623.81;;;-2.03;100.00
13476;BME280;6810;63.824;20.288;2023-02-12T05:17:59;101645.63;;;-1.97;100.00
13476;BME280;6810;63.824;20.288;2023-02-12T05:20:54;101611.63;;;-2.07;100.00
13476;BME280;6810;63.824;20.288;2023-02-12T05:23:42;101639.53;;;-1.94;100.00
13476;BME280;6810;63.824;20.288;2023-02-12T05:26:29;101629.06;;;-1.99;100.00
13476;BME280;6810;63.824;20.288;2023-02-12T05:29:16;101623.94;;;-1.90;100.00
13476;BME280;6810;63.824;20.288;2023-02-12T05:32:04;101628.28;;;-1.87;100.00
13476;BME280;6810;63.824;20.288;2023-02-12T05:34:51;101618.72;;;-1.90;100.00
13476;BME280;6810;63.824;20.288;2023-02-12T05:37:38;101604.78;;;-1.87;100.00
13476;BME280;6810;63.824;20.288;2023-02-12T05:40:06;101604.81;;;-1.81;100.00
13476;BME280;6810;63.824;20.288;2023-02-12T05:42:34;101590.03;;;-1.79;100.00
13476;BME280;6810;63.824;20.288;2023-02-12T05:45:21;101588.28;;;-1.76;100.00
13476;BME280;6810;63.824;20.288;2023-02-12T05:48:08;101589.19;;;-1.73;100.00
13476;BME280;6810;63.824;20.288;2023-02-12T05:51:01;101569.16;;;-1.77;100.00
13476;BME280;6810;63.824;20.288;2023-02-12T05:53:50;101578.75;;;-1.67;100.00
13476;BME280;6810;63.824;20.288;2023-02-12T05:56:43;101570.06;;;-1.66;100.00
13476;BME280;6810;63.824;20.288;2023-02-12T05:59:30;101576.19;;;-1.61;100.00
13476;BME280;6810;63.824;20.288;2023-02-12T06:02:18;101576.19;;;-1.58;100.00
13476;BME280;6810;63.824;20.288;2023-02-12T06:05:05;101560.53;;;-1.55;100.00
13476;BME280;6810;63.824;20.288;2023-02-12T06:07:52;101567.53;;;-1.53;100.00
13476;BME280;6810;63.824;20.288;2023-02-12T06:10:39;101560.53;;;-1.51;100.00
13476;BME280;6810;63.824;20.288;2023-02-12T06:13:26;101556.22;;;-1.49;100.00
13476;BME280;6810;63.824;20.288;2023-02-12T06:16:19;101551.00;;;-1.44;100.00
13476;BME280;6810;63.824;20.288;2023-02-12T06:19:08;101544.03;;;-1.41;100.00
13476;BME280;6810;63.824;20.288;2023-02-12T06:21:55;101531.81;;;-1.42;100.00
13476;BME280;6810;63.824;20.288;2023-02-12T06:24:42;101533.59;;;-1.38;100.00
13476;BME280;6810;63.824;20.288;2023-02-12T06:27:29;101559.75;;;-1.32;100.00
13476;BME280;6810;63.824;20.288;2023-02-12T06:30:16;101546.69;;;-1.29;100.00
13476;BME280;6810;63.824;20.288;2023-02-12T06:33:03;101533.63;;;-1.26;100.00
13476;BME280;6810;63.824;20.288;2023-02-12T06:35:50;101528.41;;;-1.23;100.00
13476;BME280;6810;63.824;20.288;2023-02-12T06:38:38;101523.19;;;-1.23;100.00
13476;BME280;6810;63.824;20.288;2023-02-12T06:41:25;101507.50;;;-1.18;100.00
13476;BME280;6810;63.824;20.288;2023-02-12T06:44:12;101517.97;;;-1.15;100.00
13476;BME280;6810;63.824;20.288;2023-02-12T06:46:59;101498.78;;;-1.13;100.00
13476;BME280;6810;63.824;20.288;2023-02-12T06:49:46;101500.53;;;-1.10;100.00
13476;BME280;6810;63.824;20.288;2023-02-12T06:52:33;101448.19;;;-1.31;100.00
13476;BME280;6810;63.824;20.288;2023-02-12T06:55:20;101481.34;;;-1.05;100.00
13476;BME280;6810;63.824;20.288;2023-02-12T06:58:07;101465.66;;;-1.05;100.00
13476;BME280;6810;63.824;20.288;2023-02-12T07:00:54;101460.44;;;-1.03;100.00
13476;BME280;6810;63.824;20.288;2023-02-12T07:03:41;101464.78;;;-0.98;100.00
13476;BME280;6810;63.824;20.288;2023-02-12T07:06:30;101450.84;;;-0.97;100.00
13476;BME280;6810;63.824;20.288;2023-02-12T07:09:19;101433.41;;;-0.93;100.00
13476;BME280;6810;63.824;20.288;2023-02-12T07:12:06;101432.53;;;-0.94;100.00
13476;BME280;6810;63.824;20.288;2023-02-12T07:14:53;101442.13;;;-0.90;100.00
13476;BME280;6810;63.824;20.288;2023-02-12T07:17:40;101430.81;;;-0.87;100.00
13476;BME280;6810;63.824;20.288;2023-02-12T07:20:27;101421.19;;;-0.85;100.00
13476;BME280;6810;63.824;20.288;2023-02-12T07:23:14;101406.38;;;-0.88;100.00
13476;BME280;6810;63.824;20.288;2023-02-12T07:26:06;101407.25;;;-0.81;100.00
13476;BME280;6810;63.824;20.288;2023-02-12T07:28:53;101395.88;;;-0.79;100.00
13476;BME280;6810;63.824;20.288;2023-02-12T07:31:42;101388.91;;;-0.77;100.00
13476;BME280;6810;63.824;20.288;2023-02-12T07:34:29;101386.28;;;-0.74;100.00
13476;BME280;6810;63.824;20.288;2023-02-12T07:37:16;101369.72;;;-0.74;100.00
13476;BME280;6810;63.824;20.288;2023-02-12T07:40:04;101374.94;;;-0.70;100.00
13476;BME280;6810;63.824;20.288;2023-02-12T07:42:54;101354.00;;;-0.67;100.00
13476;BME280;6810;63.824;20.288;2023-02-12T07:45:41;101356.59;;;-0.65;100.00
13476;BME280;6810;63.824;20.288;2023-02-12T07:48:28;101347.00;;;-0.62;100.00
13476;BME280;6810;63.824;20.288;2023-02-12T07:51:16;101345.25;;;-0.60;100.00
13476;BME280;6810;63.824;20.288;2023-02-12T07:54:06;101290.41;;;-0.96;100.00
13476;BME280;6810;63.824;20.288;2023-02-12T07:56:53;101357.44;;;-0.56;100.00
13476;BME280;6810;63.824;20.288;2023-02-12T07:59:40;101348.72;;;-0.53;100.00
13476;BME280;6810;63.824;20.288;2023-02-12T08:02:37;101345.22;;;-0.51;100.00
13476;BME280;6810;63.824;20.288;2023-02-12T08:05:24;101327.75;;;-0.49;100.00
13476;BME280;6810;63.824;20.288;2023-02-12T08:08:11;101334.75;;;-0.46;100.00
13476;BME280;6810;63.824;20.288;2023-02-12T08:10:58;101329.53;;;-0.51;100.00
13476;BME280;6810;63.824;20.288;2023-02-12T08:13:45;101335.56;;;-0.41;100.00
13476;BME280;6810;63.824;20.288;2023-02-12T08:16:37;101330.31;;;-0.37;100.00
13476;BME280;6810;63.824;20.288;2023-02-12T08:19:24;101327.69;;;-0.35;100.00
13476;BME280;6810;63.824;20.288;2023-02-12T08:22:11;101319.81;;;-0.34;100.00
13476;BME280;6810;63.824;20.288;2023-02-12T08:24:58;101323.31;;;-0.29;100.00
13476;BME280;6810;63.824;20.288;2023-02-12T08:27:45;101322.44;;;-0.26;100.00
13476;BME280;6810;63.824;20.288;2023-02-12T08:30:32;101306.72;;;-0.25;100.00
13476;BME280;6810;63.824;20.288;2023-02-12T08:33:19;101307.53;;;-0.21;100.00
13476;BME280;6810;63.824;20.288;2023-02-12T08:36:12;101298.81;;;-0.19;100.00
13476;BME280;6810;63.824;20.288;2023-02-12T08:38:59;101291.81;;;-0.17;100.00
13476;BME280;6810;63.824;20.288;2023-02-12T08:41:47;101291.78;;;-0.12;100.00
13476;BME280;6810;63.824;20.288;2023-02-12T08:44:34;101285.66;;;-0.10;100.00
13476;BME280;6810;63.824;20.288;2023-02-12T08:47:21;101277.84;;;-0.13;100.00
13476;BME280;6810;63.824;20.288;2023-02-12T08:50:08;101279.50;;;-0.03;100.00
13476;BME280;6810;63.824;20.288;2023-02-12T08:52:55;101277.75;;;-0.01;100.00
13476;BME280;6810;63.824;20.288;2023-02-12T08:55:47;101269.88;;;0.03;100.00
13476;BME280;6810;63.824;20.288;2023-02-12T08:58:35;101207.19;;;-0.25;100.00
13476;BME280;6810;63.824;20.288;2023-02-12T09:01:24;101257.59;;;0.09;100.00
13476;BME280;6810;63.824;20.288;2023-02-12T09:04:21;101246.22;;;0.10;100.00
13476;BME280;6810;63.824;20.288;2023-02-12T09:07:08;101236.59;;;0.14;100.00
13476;BME280;6810;63.824;20.288;2023-02-12T09:09:55;101230.44;;;0.18;100.00
13476;BME280;6810;63.824;20.288;2023-02-12T09:12:42;101231.31;;;0.20;100.00
13476;BME280;6810;63.824;20.288;2023-02-12T09:15:28;101228.69;;;0.20;100.00
13476;BME280;6810;63.824;20.288;2023-02-12T09:18:16;101234.72;;;0.28;100.00
13476;BME280;6810;63.824;20.288;2023-02-12T09:21:05;101232.06;;;0.31;100.00
13476;BME280;6810;63.824;20.288;2023-02-12T09:23:53;101226.84;;;0.34;100.00
13476;BME280;6810;63.824;20.288;2023-02-12T09:26:40;101181.53;;;0.20;100.00
13476;BME280;6810;63.824;20.288;2023-02-12T09:29:27;101193.59;;;0.34;100.00
13476;BME280;6810;63.824;20.288;2023-02-12T09:32:14;101182.28;;;0.28;100.00
13476;BME280;6810;63.824;20.288;2023-02-12T09:35:01;101191.78;;;0.41;100.00
13476;BME280;6810;63.824;20.288;2023-02-12T09:37:48;101183.00;;;0.46;100.00
13476;BME280;6810;63.824;20.288;2023-02-12T09:43:41;101116.03;;;0.17;100.00
13476;BME280;6810;63.824;20.288;2023-02-12T09:52:04;101169.72;;;0.60;100.00
13476;BME280;6810;63.824;20.288;2023-02-12T09:54:54;101166.22;;;0.62;100.00
13476;BME280;6810;63.824;20.288;2023-02-12T09:57:42;101163.56;;;0.65;100.00
13476;BME280;6810;63.824;20.288;2023-02-12T10:00:30;101147.00;;;0.62;100.00
13476;BME280;6810;63.824;20.288;2023-02-12T10:03:17;101162.66;;;0.68;100.00
13476;BME280;6810;63.824;20.288;2023-02-12T10:06:10;101172.22;;;0.73;100.00
13476;BME280;6810;63.824;20.288;2023-02-12T10:12:23;101165.16;;;0.78;100.00
13476;BME280;6810;63.824;20.288;2023-02-12T10:15:33;101162.50;;;0.80;100.00
13476;BME280;6810;63.824;20.288;2023-02-12T10:18:48;101151.97;;;0.83;100.00
13476;BME280;6810;63.824;20.288;2023-02-12T10:21:42;101144.06;;;0.86;100.00
13476;BME280;6810;63.824;20.288;2023-02-12T10:24:45;101143.19;;;0.88;100.00
13476;BME280;6810;63.824;20.288;2023-02-12T10:27:55;101127.50;;;0.85;100.00
13476;BME280;6810;63.824;20.288;2023-02-12T10:31:24;101126.50;;;0.94;100.00
13476;BME280;6810;63.824;20.288;2023-02-12T10:34:30;101125.59;;;0.98;100.00
13476;BME280;6810;63.824;20.288;2023-02-12T10:37:41;101114.19;;;0.99;100.00
13476;BME280;6810;63.824;20.288;2023-02-12T10:40:31;101131.63;;;1.03;100.00
13476;BME280;6810;63.824;20.288;2023-02-12T10:43:19;101111.53;;;1.00;100.00
13476;BME280;6810;63.824;20.288;2023-02-12T10:46:13;101113.16;;;1.09;100.00
13476;BME280;6810;63.824;20.288;2023-02-12T10:49:01;101114.91;;;1.11;100.00
13476;BME280;6810;63.824;20.288;2023-02-12T10:55:28;101134.06;;;1.16;100.00
13476;BME280;6810;63.824;20.288;2023-02-12T10:58:20;101126.22;;;1.13;100.00
13476;BME280;6810;63.824;20.288;2023-02-12T11:01:33;101128.75;;;1.21;100.00
13476;BME280;6810;63.824;20.288;2023-02-12T11:04:25;101129.56;;;1.24;100.00
13476;BME280;6810;63.824;20.288;2023-02-12T11:07:13;101132.16;;;1.27;100.00
13476;BME280;6810;63.824;20.288;2023-02-12T11:10:00;101130.44;;;1.26;100.00
13476;BME280;6810;63.824;20.288;2023-02-12T11:12:47;101134.75;;;1.30;100.00
13476;BME280;6810;63.824;20.288;2023-02-12T11:15:46;101141.72;;;1.33;100.00
13476;BME280;6810;63.824;20.288;2023-02-12T11:18:34;101115.50;;;1.30;100.00
13476;BME280;6810;63.824;20.288;2023-02-12T11:21:22;101127.66;;;1.37;100.00
13476;BME280;6810;63.824;20.288;2023-02-12T11:24:27;101122.34;;;1.40;100.00
13476;BME280;6810;63.824;20.288;2023-02-12T11:30:18;101100.31;;;1.50;100.00
13476;BME280;6810;63.824;20.288;2023-02-12T11:36:23;101081.63;;;1.69;100.00
13476;BME280;6810;63.824;20.288;2023-02-12T11:39:34;101080.53;;;1.81;100.00
13476;BME280;6810;63.824;20.288;2023-02-12T11:42:24;101074.25;;;1.90;100.00
13476;BME280;6810;63.824;20.288;2023-02-12T11:45:20;101031.53;;;1.80;100.00
13476;BME280;6810;63.824;20.288;2023-02-12T11:48:36;101067.66;;;2.15;99.22
13476;BME280;6810;63.824;20.288;2023-02-12T11:51:25;101060.59;;;2.18;99.83
13476;BME280;6810;63.824;20.288;2023-02-12T11:54:19;101048.16;;;2.28;99.70
13476;BME280;6810;63.824;20.288;2023-02-12T12:00:41;101048.75;;;2.40;98.72
13476;BME280;6810;63.824;20.288;2023-02-12T12:09:46;101043.75;;;2.69;98.46
13476;BME280;6810;63.824;20.288;2023-02-12T12:15:23;101039.16;;;2.79;96.95
13476;BME280;6810;63.824;20.288;2023-02-12T12:21:37;101022.25;;;2.90;97.08
13476;BME280;6810;63.824;20.288;2023-02-12T12:27:23;100999.19;;;3.00;97.55
13476;BME280;6810;63.824;20.288;2023-02-12T12:30:21;100988.56;;;3.04;97.08
13476;BME280;6810;63.824;20.288;2023-02-12T13:05:31;100985.09;;;3.73;97.68
13476;BME280;6810;63.824;20.288;2023-02-12T13:09:31;100985.03;;;3.76;97.04
13476;BME280;6810;63.824;20.288;2023-02-12T13:12:26;100989.25;;;3.81;98.20
13476;BME280;6810;63.824;20.288;2023-02-12T13:18:19;100989.13;;;3.86;98.96
13476;BME280;6810;63.824;20.288;2023-02-12T13:24:12;100971.38;;;3.92;98.59
13476;BME280;6810;63.824;20.288;2023-02-12T13:27:14;100975.66;;;3.96;99.07
13476;BME280;6810;63.824;20.288;2023-02-12T13:30:14;100968.53;;;4.00;99.53
13476;BME280;6810;63.824;20.288;2023-02-12T13:35:57;100980.53;;;4.10;100.00
13476;BME280;6810;63.824;20.288;2023-02-12T13:39:06;100911.06;;;3.82;100.00
13476;BME280;6810;63.824;20.288;2023-02-12T13:42:07;100959.13;;;4.22;100.00
13476;BME280;6810;63.824;20.288;2023-02-12T13:51:34;100955.47;;;4.26;100.00
13476;BME280;6810;63.824;20.288;2023-02-12T13:57:45;100946.97;;;4.45;100.00
13476;BME280;6810;63.824;20.288;2023-02-12T14:03:38;100961.75;;;4.52;100.00
13476;BME280;6810;63.824;20.288;2023-02-12T14:06:25;100978.38;;;4.54;100.00
13476;BME280;6810;63.824;20.288;2023-02-12T14:09:19;100977.38;;;4.58;100.00
13476;BME280;6810;63.824;20.288;2023-02-12T14:18:35;100998.28;;;4.66;100.00
13476;BME280;6810;63.824;20.288;2023-02-12T14:30:35;101011.91;;;4.80;100.00
13476;BME280;6810;63.824;20.288;2023-02-12T14:33:25;100999.47;;;4.83;100.00
13476;BME280;6810;63.824;20.288;2023-02-12T14:44:56;101013.72;;;5.07;100.00
13476;BME280;6810;63.824;20.288;2023-02-12T14:50:39;101000.13;;;5.19;100.00
13476;BME280;6810;63.824;20.288;2023-02-12T14:53:33;100987.69;;;5.22;100.00
13476;BME280;6810;63.824;20.288;2023-02-12T14:56:22;101024.59;;;5.25;100.00
13476;BME280;6810;63.824;20.288;2023-02-12T14:59:16;101028.91;;;5.28;100.00
13476;BME280;6810;63.824;20.288;2023-02-12T15:02:05;101036.72;;;5.31;100.00
13476;BME280;6810;63.824;20.288;2023-02-12T15:04:57;101043.69;;;5.33;100.00
13476;BME280;6810;63.824;20.288;2023-02-12T15:07:57;101048.91;;;5.35;100.00
13476;BME280;6810;63.824;20.288;2023-02-12T15:10:32;101060.31;;;5.37;100.00
13476;BME280;6810;63.824;20.288;2023-02-12T15:16:26;101066.28;;;5.44;100.00
13476;BME280;6810;63.824;20.288;2023-02-12T15:19:28;101074.09;;;5.47;100.00
13476;BME280;6810;63.824;20.288;2023-02-12T15:28:24;101084.59;;;5.50;100.00
13476;BME280;6810;63.824;20.288;2023-02-12T15:31:19;101074.00;;;5.50;100.00
13476;BME280;6810;63.824;20.288;2023-02-12T15:34:19;101066.31;;;5.42;100.00
13476;BME280;6810;63.824;20.288;2023-02-12T15:37:08;101072.47;;;5.43;100.00
13476;BME280;6810;63.824;20.288;2023-02-12T15:40:01;101085.56;;;5.47;100.00
13476;BME280;6810;63.824;20.288;2023-02-12T15:42:57;101076.84;;;5.44;100.00
13476;BME280;6810;63.824;20.288;2023-02-12T15:45:51;101022.63;;;5.03;100.00
13476;BME280;6810;63.824;20.288;2023-02-12T15:48:39;101085.59;;;5.46;100.00
13476;BME280;6810;63.824;20.288;2023-02-12T15:51:37;101111.22;;;5.44;100.00
13476;BME280;6810;63.824;20.288;2023-02-12T15:54:26;101079.97;;;5.28;100.00
13476;BME280;6810;63.824;20.288;2023-02-12T15:57:19;101087.66;;;5.36;100.00
13476;BME280;6810;63.824;20.288;2023-02-12T16:00:40;101105.00;;;5.45;100.00
13476;BME280;6810;63.824;20.288;2023-02-12T16:03:28;101102.31;;;5.46;100.00
13476;BME280;6810;63.824;20.288;2023-02-12T16:06:16;101114.69;;;5.46;100.00
13476;BME280;6810;63.824;20.288;2023-02-12T16:09:17;101097.16;;;5.42;100.00
13476;BME280;6810;63.824;20.288;2023-02-12T16:12:11;101117.34;;;5.44;100.00
13476;BME280;6810;63.824;20.288;2023-02-12T16:15:00;101113.84;;;5.44;100.00
13476;BME280;6810;63.824;20.288;2023-02-12T16:17:47;101118.34;;;5.40;100.00
13476;BME280;6810;63.824;20.288;2023-02-12T16:20:34;101122.72;;;5.41;100.00
13476;BME280;6810;63.824;20.288;2023-02-12T16:23:21;101125.41;;;5.39;100.00
13476;BME280;6810;63.824;20.288;2023-02-12T16:26:11;101139.59;;;5.37;100.00
13476;BME280;6810;63.824;20.288;2023-02-12T16:29:02;101144.94;;;5.35;100.00
13476;BME280;6810;63.824;20.288;2023-02-12T16:31:55;101145.91;;;5.33;100.00
13476;BME280;6810;63.824;20.288;2023-02-12T16:34:42;101145.03;;;5.32;100.00
13476;BME280;6810;63.824;20.288;2023-02-12T16:40:24;101148.59;;;5.31;100.00
13476;BME280;6810;63.824;20.288;2023-02-12T16:43:23;101149.47;;;5.30;100.00
13476;BME280;6810;63.824;20.288;2023-02-12T16:46:10;101134.56;;;5.29;100.00
13476;BME280;6810;63.824;20.288;2023-02-12T16:48:59;101142.63;;;5.25;100.00
13476;BME280;6810;63.824;20.288;2023-02-12T16:51:51;101143.50;;;5.25;100.00
13476;BME280;6810;63.824;20.288;2023-02-12T16:54:38;101129.88;;;5.10;100.00
13476;BME280;6810;63.824;20.288;2023-02-12T16:57:25;101158.56;;;5.22;100.00
13476;BME280;6810;63.824;20.288;2023-02-12T17:00:15;101166.53;;;5.20;100.00
13476;BME280;6810;63.824;20.288;2023-02-12T17:03:02;101164.81;;;5.19;100.00
13476;BME280;6810;63.824;20.288;2023-02-12T17:05:49;101174.50;;;5.19;100.00
13476;BME280;6810;63.824;20.288;2023-02-12T17:08:36;101172.88;;;5.15;100.00
13476;BME280;6810;63.824;20.288;2023-02-12T17:11:24;101183.44;;;5.15;100.00
13476;BME280;6810;63.824;20.288;2023-02-12T17:14:17;101146.34;;;4.89;100.00
13476;BME280;6810;63.824;20.288;2023-02-12T17:17:05;101181.91;;;5.06;100.00
13476;BME280;6810;63.824;20.288;2023-02-12T17:19:52;101191.59;;;5.06;100.00
13476;BME280;6810;63.824;20.288;2023-02-12T17:22:41;101187.28;;;5.03;100.00
13476;BME280;6810;63.824;20.288;2023-02-12T17:25:31;101196.16;;;5.01;100.00
13476;BME280;6810;63.824;20.288;2023-02-12T17:28:18;101200.66;;;4.97;100.00
13476;BME280;6810;63.824;20.288;2023-02-12T17:31:05;101191.91;;;4.95;100.00
13476;BME280;6810;63.824;20.288;2023-02-12T17:33:52;101199.06;;;4.92;100.00